sensor_id;sensor_type;location;lat;lon;timestamp;P1;durP1;ratioP1;P2;durP2;ratioP2
6043;SDS011;3050;42.660;23.276;2023-06-14T00:01:53;1.60;;;1.50;;
6043;SDS011;3050;42.660;23.276;2023-06-14T00:05:21;2.88;;;1.80;;
6043;SDS011;3050;42.660;23.276;2023-06-14T00:08:51;2.30;;;2.20;;
6043;SDS011;3050;42.660;23.276;2023-06-14T00:12:16;3.15;;;2.10;;
6043;SDS011;3050;42.660;23.276;2023-06-14T00:15:43;2.20;;;2.10;;
6043;SDS011;3050;42.660;23.276;2023-06-14T00:19:09;1.63;;;1.52;;
6043;SDS011;3050;42.660;23.276;2023-06-14T00:22:35;2.03;;;1.92;;
6043;SDS011;3050;42.660;23.276;2023-06-14T00:26:03;2.60;;;1.38;;
6043;SDS011;3050;42.660;23.276;2023-06-14T00:29:28;1.90;;;1.80;;
6043;SDS011;3050;42.660;23.276;2023-06-14T00:32:55;2.78;;;2.25;;
6043;SDS011;3050;42.660;23.276;2023-06-14T00:36:21;2.00;;;1.85;;
6043;SDS011;3050;42.660;23.276;2023-06-14T00:39:46;2.17;;;1.67;;
6043;SDS011;3050;42.660;23.276;2023-06-14T00:43:14;2.13;;;1.98;;
6043;SDS011;3050;42.660;23.276;2023-06-14T00:46:42;2.20;;;2.00;;
6043;SDS011;3050;42.660;23.276;2023-06-14T00:50:08;1.70;;;1.60;;
6043;SDS011;3050;42.660;23.276;2023-06-14T00:53:34;1.95;;;1.85;;
6043;SDS011;3050;42.660;23.276;2023-06-14T00:57:00;2.35;;;2.25;;
6043;SDS011;3050;42.660;23.276;2023-06-14T01:00:27;1.52;;;1.42;;
6043;SDS011;3050;42.660;23.276;2023-06-14T01:03:53;1.80;;;1.70;;
6043;SDS011;3050;42.660;23.276;2023-06-14T01:07:23;3.95;;;1.58;;
6043;SDS011;3050;42.660;23.276;2023-06-14T01:10:53;1.77;;;1.70;;
6043;SDS011;3050;42.660;23.276;2023-06-14T01:14:27;2.28;;;1.83;;
6043;SDS011;3050;42.660;23.276;2023-06-14T01:17:56;1.73;;;1.63;;
6043;SDS011;3050;42.660;23.276;2023-06-14T01:21:23;2.33;;;1.73;;
6043;SDS011;3050;42.660;23.276;2023-06-14T01:24:51;1.92;;;1.83;;
6043;SDS011;3050;42.660;23.276;2023-06-14T01:28:19;1.55;;;1.45;;
6043;SDS011;3050;42.660;23.276;2023-06-14T01:31:46;1.55;;;1.52;;
6043;SDS011;3050;42.660;23.276;2023-06-14T01:35:12;2.80;;;1.83;;
6043;SDS011;3050;42.660;23.276;2023-06-14T01:38:38;1.95;;;1.85;;
6043;SDS011;3050;42.660;23.276;2023-06-14T01:42:07;2.00;;;1.90;;
6043;SDS011;3050;42.660;23.276;2023-06-14T01:45:33;2.15;;;1.95;;
6043;SDS011;3050;42.660;23.276;2023-06-14T01:48:59;2.53;;;1.83;;
6043;SDS011;3050;42.660;23.276;2023-06-14T01:52:25;2.67;;;2.00;;
6043;SDS011;3050;42.660;23.276;2023-06-14T01:55:50;2.70;;;2.05;;
6043;SDS011;3050;42.660;23.276;2023-06-14T01:59:17;1.63;;;1.52;;
6043;SDS011;3050;42.660;23.276;2023-06-14T02:02:43;1.65;;;1.55;;
6043;SDS011;3050;42.660;23.276;2023-06-14T02:06:10;4.88;;;1.98;;
6043;SDS011;3050;42.660;23.276;2023-06-14T02:09:35;2.40;;;1.88;;
6043;SDS011;3050;42.660;23.276;2023-06-14T02:13:01;1.83;;;1.73;;
6043;SDS011;3050;42.660;23.276;2023-06-14T02:16:28;1.25;;;1.25;;
6043;SDS011;3050;42.660;23.276;2023-06-14T02:19:53;1.60;;;1.50;;
6043;SDS011;3050;42.660;23.276;2023-06-14T02:23:19;1.77;;;1.50;;
6043;SDS011;3050;42.660;23.276;2023-06-14T02:26:45;1.02;;;1.02;;
6043;SDS011;3050;42.660;23.276;2023-06-14T02:30:11;1.58;;;1.08;;
6043;SDS011;3050;42.660;23.276;2023-06-14T02:33:38;4.95;;;1.80;;
6043;SDS011;3050;42.660;23.276;2023-06-14T02:37:06;2.20;;;2.00;;
6043;SDS011;3050;42.660;23.276;2023-06-14T02:40:32;2.08;;;1.88;;
6043;SDS011;3050;42.660;23.276;2023-06-14T02:43:57;1.98;;;1.85;;
6043;SDS011;3050;42.660;23.276;2023-06-14T02:47:23;1.45;;;1.45;;
6043;SDS011;3050;42.660;23.276;2023-06-14T02:50:50;1.42;;;1.33;;
6043;SDS011;3050;42.660;23.276;2023-06-14T02:54:15;1.13;;;1.13;;
6043;SDS011;3050;42.660;23.276;2023-06-14T02:57:41;2.38;;;1.80;;
6043;SDS011;3050;42.660;23.276;2023-06-14T03:01:07;2.17;;;1.80;;
6043;SDS011;3050;42.660;23.276;2023-06-14T03:04:33;1.48;;;1.20;;
6043;SDS011;3050;42.660;23.276;2023-06-14T03:08:00;1.33;;;1.23;;
6043;SDS011;3050;42.660;23.276;2023-06-14T03:11:29;1.30;;;1.30;;
6043;SDS011;3050;42.660;23.276;2023-06-14T03:14:56;1.80;;;1.48;;
6043;SDS011;3050;42.660;23.276;2023-06-14T03:18:21;2.90;;;1.10;;
6043;SDS011;3050;42.660;23.276;2023-06-14T03:21:52;1.48;;;1.27;;
6043;SDS011;3050;42.660;23.276;2023-06-14T03:25:20;1.40;;;1.30;;
6043;SDS011;3050;42.660;23.276;2023-06-14T03:29:03;1.45;;;1.35;;
6043;SDS011;3050;42.660;23.276;2023-06-14T03:32:30;2.40;;;1.60;;
6043;SDS011;3050;42.660;23.276;2023-06-14T03:35:57;1.20;;;1.20;;
6043;SDS011;3050;42.660;23.276;2023-06-14T03:39:24;1.88;;;1.55;;
6043;SDS011;3050;42.660;23.276;2023-06-14T03:42:52;1.45;;;1.45;;
6043;SDS011;3050;42.660;23.276;2023-06-14T03:46:27;1.42;;;1.33;;
6043;SDS011;3050;42.660;23.276;2023-06-14T03:49:56;1.40;;;1.40;;
6043;SDS011;3050;42.660;23.276;2023-06-14T03:53:22;2.55;;;1.50;;
6043;SDS011;3050;42.660;23.276;2023-06-14T03:56:49;4.10;;;1.65;;
6043;SDS011;3050;42.660;23.276;2023-06-14T04:00:15;31.38;;;13.45;;
6043;SDS011;3050;42.660;23.276;2023-06-14T04:03:41;3.90;;;3.45;;
6043;SDS011;3050;42.660;23.276;2023-06-14T04:07:09;1.40;;;1.30;;
6043;SDS011;3050;42.660;23.276;2023-06-14T04:10:35;1.60;;;1.38;;
6043;SDS011;3050;42.660;23.276;2023-06-14T04:14:02;2.20;;;1.73;;
6043;SDS011;3050;42.660;23.276;2023-06-14T04:17:30;2.10;;;2.00;;
6043;SDS011;3050;42.660;23.276;2023-06-14T04:20:56;2.00;;;1.90;;
6043;SDS011;3050;42.660;23.276;2023-06-14T04:24:22;1.88;;;1.77;;
6043;SDS011;3050;42.660;23.276;2023-06-14T04:27:48;2.00;;;1.90;;
6043;SDS011;3050;42.660;23.276;2023-06-14T04:31:16;1.92;;;1.83;;
6043;SDS011;3050;42.660;23.276;2023-06-14T04:34:44;1.83;;;1.73;;
6043;SDS011;3050;42.660;23.276;2023-06-14T04:38:12;1.98;;;1.88;;
6043;SDS011;3050;42.660;23.276;2023-06-14T04:41:38;2.55;;;2.20;;
6043;SDS011;3050;42.660;23.276;2023-06-14T04:45:06;1.98;;;1.88;;
6043;SDS011;3050;42.660;23.276;2023-06-14T04:48:36;2.10;;;2.00;;
6043;SDS011;3050;42.660;23.276;2023-06-14T04:52:02;2.17;;;2.08;;
6043;SDS011;3050;42.660;23.276;2023-06-14T04:55:28;2.20;;;2.10;;
6043;SDS011;3050;42.660;23.276;2023-06-14T04:58:55;2.50;;;1.88;;
6043;SDS011;3050;42.660;23.276;2023-06-14T05:02:22;4.15;;;2.50;;
6043;SDS011;3050;42.660;23.276;2023-06-14T05:05:48;2.65;;;2.45;;
6043;SDS011;3050;42.660;23.276;2023-06-14T05:09:20;4.75;;;2.60;;
6043;SDS011;3050;42.660;23.276;2023-06-14T05:12:54;3.97;;;2.05;;
6043;SDS011;3050;42.660;23.276;2023-06-14T05:16:21;1.75;;;1.75;;
6043;SDS011;3050;42.660;23.276;2023-06-14T05:19:53;2.33;;;2.15;;
6043;SDS011;3050;42.660;23.276;2023-06-14T05:23:22;2.72;;;2.53;;
6043;SDS011;3050;42.660;23.276;2023-06-14T05:26:51;4.95;;;2.95;;
6043;SDS011;3050;42.660;23.276;2023-06-14T05:30:17;2.53;;;2.33;;
6043;SDS011;3050;42.660;23.276;2023-06-14T05:33:42;2.60;;;2.47;;
6043;SDS011;3050;42.660;23.276;2023-06-14T05:37:12;2.78;;;2.63;;
6043;SDS011;3050;42.660;23.276;2023-06-14T05:40:37;3.65;;;3.10;;
6043;SDS011;3050;42.660;23.276;2023-06-14T05:44:09;3.55;;;3.05;;
6043;SDS011;3050;42.660;23.276;2023-06-14T05:47:35;3.28;;;3.08;;
6043;SDS011;3050;42.660;23.276;2023-06-14T05:51:01;2.55;;;2.35;;
6043;SDS011;3050;42.660;23.276;2023-06-14T05:57:06;3.97;;;3.47;;
6043;SDS011;3050;42.660;23.276;2023-06-14T06:00:32;3.42;;;3.17;;
6043;SDS011;3050;42.660;23.276;2023-06-14T06:03:59;3.15;;;2.95;;
6043;SDS011;3050;42.660;23.276;2023-06-14T06:06:26;3.33;;;2.90;;
6043;SDS011;3050;42.660;23.276;2023-06-14T06:08:55;3.00;;;2.63;;
6043;SDS011;3050;42.660;23.276;2023-06-14T06:11:27;2.95;;;2.75;;
6043;SDS011;3050;42.660;23.276;2023-06-14T06:13:59;3.15;;;2.85;;
6043;SDS011;3050;42.660;23.276;2023-06-14T06:16:26;4.13;;;3.13;;
6043;SDS011;3050;42.660;23.276;2023-06-14T06:18:54;3.40;;;3.10;;
6043;SDS011;3050;42.660;23.276;2023-06-14T06:21:36;4.68;;;3.28;;
6043;SDS011;3050;42.660;23.276;2023-06-14T06:24:04;2.75;;;2.55;;
6043;SDS011;3050;42.660;23.276;2023-06-14T06:26:34;3.20;;;2.90;;
6043;SDS011;3050;42.660;23.276;2023-06-14T06:30:02;3.55;;;2.63;;
6043;SDS011;3050;42.660;23.276;2023-06-14T06:33:28;3.42;;;3.05;;
6043;SDS011;3050;42.660;23.276;2023-06-14T06:36:53;2.95;;;2.75;;
6043;SDS011;3050;42.660;23.276;2023-06-14T06:40:27;2.45;;;2.25;;
6043;SDS011;3050;42.660;23.276;2023-06-14T06:43:54;2.63;;;2.42;;
6043;SDS011;3050;42.660;23.276;2023-06-14T06:47:20;4.28;;;3.33;;
6043;SDS011;3050;42.660;23.276;2023-06-14T06:50:45;3.40;;;3.10;;
6043;SDS011;3050;42.660;23.276;2023-06-14T06:54:25;4.10;;;2.88;;
6043;SDS011;3050;42.660;23.276;2023-06-14T06:57:54;3.83;;;3.38;;
6043;SDS011;3050;42.660;23.276;2023-06-14T07:01:21;3.55;;;3.17;;
6043;SDS011;3050;42.660;23.276;2023-06-14T07:03:49;4.20;;;3.40;;
6043;SDS011;3050;42.660;23.276;2023-06-14T07:06:17;3.33;;;3.03;;
6043;SDS011;3050;42.660;23.276;2023-06-14T07:09:44;8.57;;;3.28;;
6043;SDS011;3050;42.660;23.276;2023-06-14T07:12:11;3.50;;;3.17;;
6043;SDS011;3050;42.660;23.276;2023-06-14T07:14:40;3.70;;;3.40;;
6043;SDS011;3050;42.660;23.276;2023-06-14T07:18:08;3.70;;;2.70;;
6043;SDS011;3050;42.660;23.276;2023-06-14T07:21:35;4.55;;;3.33;;
6043;SDS011;3050;42.660;23.276;2023-06-14T07:25:01;3.65;;;3.35;;
6043;SDS011;3050;42.660;23.276;2023-06-14T07:28:29;5.72;;;2.78;;
6043;SDS011;3050;42.660;23.276;2023-06-14T07:31:55;4.68;;;3.30;;
6043;SDS011;3050;42.660;23.276;2023-06-14T07:35:23;3.88;;;3.58;;
6043;SDS011;3050;42.660;23.276;2023-06-14T07:38:51;4.75;;;3.72;;
6043;SDS011;3050;42.660;23.276;2023-06-14T07:42:20;4.60;;;4.00;;
6043;SDS011;3050;42.660;23.276;2023-06-14T07:45:47;5.88;;;4.03;;
6043;SDS011;3050;42.660;23.276;2023-06-14T07:49:14;4.90;;;3.72;;
6043;SDS011;3050;42.660;23.276;2023-06-14T07:52:46;4.40;;;2.67;;
6043;SDS011;3050;42.660;23.276;2023-06-14T07:56:12;4.10;;;3.70;;
6043;SDS011;3050;42.660;23.276;2023-06-14T07:59:40;3.65;;;3.35;;
6043;SDS011;3050;42.660;23.276;2023-06-14T08:03:08;5.95;;;4.25;;
6043;SDS011;3050;42.660;23.276;2023-06-14T08:06:34;4.25;;;3.80;;
6043;SDS011;3050;42.660;23.276;2023-06-14T08:10:02;7.15;;;3.00;;
6043;SDS011;3050;42.660;23.276;2023-06-14T08:13:28;2.72;;;2.53;;
6043;SDS011;3050;42.660;23.276;2023-06-14T08:16:55;2.75;;;2.55;;
6043;SDS011;3050;42.660;23.276;2023-06-14T08:20:24;2.95;;;2.75;;
6043;SDS011;3050;42.660;23.276;2023-06-14T08:23:54;3.42;;;3.17;;
6043;SDS011;3050;42.660;23.276;2023-06-14T08:27:21;3.70;;;3.30;;
6043;SDS011;3050;42.660;23.276;2023-06-14T08:30:47;3.90;;;3.47;;
6043;SDS011;3050;42.660;23.276;2023-06-14T08:34:13;3.25;;;3.05;;
6043;SDS011;3050;42.660;23.276;2023-06-14T08:37:43;3.67;;;3.38;;
6043;SDS011;3050;42.660;23.276;2023-06-14T08:41:10;12.93;;;3.80;;
6043;SDS011;3050;42.660;23.276;2023-06-14T08:44:39;4.03;;;3.20;;
6043;SDS011;3050;42.660;23.276;2023-06-14T08:48:05;3.72;;;3.33;;
6043;SDS011;3050;42.660;23.276;2023-06-14T08:51:32;3.55;;;3.35;;
6043;SDS011;3050;42.660;23.276;2023-06-14T08:55:06;4.00;;;3.65;;
6043;SDS011;3050;42.660;23.276;2023-06-14T08:58:33;3.70;;;3.33;;
6043;SDS011;3050;42.660;23.276;2023-06-14T09:02:05;4.78;;;3.65;;
6043;SDS011;3050;42.660;23.276;2023-06-14T09:05:38;7.88;;;3.42;;
6043;SDS011;3050;42.660;23.276;2023-06-14T09:09:03;3.28;;;3.05;;
6043;SDS011;3050;42.660;23.276;2023-06-14T09:12:34;8.95;;;3.20;;
6043;SDS011;3050;42.660;23.276;2023-06-14T09:15:59;3.38;;;3.13;;
6043;SDS011;3050;42.660;23.276;2023-06-14T09:19:27;5.15;;;4.22;;
6043;SDS011;3050;42.660;23.276;2023-06-14T09:22:59;5.60;;;3.70;;
6043;SDS011;3050;42.660;23.276;2023-06-14T09:26:26;6.70;;;3.63;;
6043;SDS011;3050;42.660;23.276;2023-06-14T09:29:52;5.80;;;4.80;;
6043;SDS011;3050;42.660;23.276;2023-06-14T09:33:18;4.72;;;4.30;;
6043;SDS011;3050;42.660;23.276;2023-06-14T09:36:52;5.70;;;4.32;;
6043;SDS011;3050;42.660;23.276;2023-06-14T09:40:20;4.32;;;3.92;;
6043;SDS011;3050;42.660;23.276;2023-06-14T09:43:46;4.03;;;3.72;;
6043;SDS011;3050;42.660;23.276;2023-06-14T09:47:13;4.25;;;3.85;;
6043;SDS011;3050;42.660;23.276;2023-06-14T09:50:45;3.90;;;3.58;;
6043;SDS011;3050;42.660;23.276;2023-06-14T09:54:14;4.80;;;4.13;;
6043;SDS011;3050;42.660;23.276;2023-06-14T09:57:43;4.38;;;3.97;;
6043;SDS011;3050;42.660;23.276;2023-06-14T10:01:13;7.43;;;4.32;;
6043;SDS011;3050;42.660;23.276;2023-06-14T10:04:46;4.95;;;4.55;;
6043;SDS011;3050;42.660;23.276;2023-06-14T10:08:22;4.35;;;3.95;;
6043;SDS011;3050;42.660;23.276;2023-06-14T10:11:57;6.20;;;4.53;;
6043;SDS011;3050;42.660;23.276;2023-06-14T10:15:23;5.03;;;4.57;;
6043;SDS011;3050;42.660;23.276;2023-06-14T10:19:00;5.07;;;3.78;;
6043;SDS011;3050;42.660;23.276;2023-06-14T10:22:42;4.85;;;4.32;;
6043;SDS011;3050;42.660;23.276;2023-06-14T10:26:22;6.10;;;4.32;;
6043;SDS011;3050;42.660;23.276;2023-06-14T10:30:02;7.72;;;4.07;;
6043;SDS011;3050;42.660;23.276;2023-06-14T10:33:29;4.60;;;3.85;;
6043;SDS011;3050;42.660;23.276;2023-06-14T10:37:04;6.07;;;4.45;;
6043;SDS011;3050;42.660;23.276;2023-06-14T10:40:33;4.25;;;3.85;;
6043;SDS011;3050;42.660;23.276;2023-06-14T10:47:47;4.80;;;3.30;;
6043;SDS011;3050;42.660;23.276;2023-06-14T10:51:24;4.28;;;3.60;;
6043;SDS011;3050;42.660;23.276;2023-06-14T10:55:04;5.75;;;3.60;;
6043;SDS011;3050;42.660;23.276;2023-06-14T10:58:34;9.50;;;4.25;;
6043;SDS011;3050;42.660;23.276;2023-06-14T11:02:06;3.28;;;3.03;;
6043;SDS011;3050;42.660;23.276;2023-06-14T11:05:57;5.30;;;3.30;;
6043;SDS011;3050;42.660;23.276;2023-06-14T11:09:45;4.05;;;3.53;;
6043;SDS011;3050;42.660;23.276;2023-06-14T11:13:16;5.53;;;3.13;;
6043;SDS011;3050;42.660;23.276;2023-06-14T11:16:47;4.00;;;3.28;;
6043;SDS011;3050;42.660;23.276;2023-06-14T11:20:18;3.85;;;3.42;;
6043;SDS011;3050;42.660;23.276;2023-06-14T11:23:52;6.20;;;4.30;;
6043;SDS011;3050;42.660;23.276;2023-06-14T11:27:19;3.88;;;3.58;;
6043;SDS011;3050;42.660;23.276;2023-06-14T11:30:48;5.95;;;3.97;;
6043;SDS011;3050;42.660;23.276;2023-06-14T11:34:14;3.90;;;3.60;;
6043;SDS011;3050;42.660;23.276;2023-06-14T11:37:40;4.28;;;3.90;;
6043;SDS011;3050;42.660;23.276;2023-06-14T11:41:06;7.50;;;4.30;;
6043;SDS011;3050;42.660;23.276;2023-06-14T11:44:32;4.20;;;3.80;;
6043;SDS011;3050;42.660;23.276;2023-06-14T11:47:59;3.97;;;3.58;;
6043;SDS011;3050;42.660;23.276;2023-06-14T11:51:28;8.38;;;4.30;;
6043;SDS011;3050;42.660;23.276;2023-06-14T11:54:53;4.25;;;3.53;;
6043;SDS011;3050;42.660;23.276;2023-06-14T11:58:20;4.05;;;3.25;;
6043;SDS011;3050;42.660;23.276;2023-06-14T12:01:47;3.13;;;2.92;;
6043;SDS011;3050;42.660;23.276;2023-06-14T12:05:22;2.95;;;2.75;;
6043;SDS011;3050;42.660;23.276;2023-06-14T12:08:58;4.40;;;3.63;;
6043;SDS011;3050;42.660;23.276;2023-06-14T12:12:34;6.15;;;3.40;;
6043;SDS011;3050;42.660;23.276;2023-06-14T12:16:02;5.30;;;3.00;;
6043;SDS011;3050;42.660;23.276;2023-06-14T12:19:41;3.20;;;3.00;;
6043;SDS011;3050;42.660;23.276;2023-06-14T12:23:08;3.47;;;3.00;;
6043;SDS011;3050;42.660;23.276;2023-06-14T12:26:37;3.03;;;2.80;;
6043;SDS011;3050;42.660;23.276;2023-06-14T12:30:07;4.07;;;3.45;;
6043;SDS011;3050;42.660;23.276;2023-06-14T12:33:33;3.20;;;2.85;;
6043;SDS011;3050;42.660;23.276;2023-06-14T12:37:01;6.05;;;2.97;;
6043;SDS011;3050;42.660;23.276;2023-06-14T12:40:28;2.80;;;2.60;;
6043;SDS011;3050;42.660;23.276;2023-06-14T12:43:56;2.78;;;2.58;;
6043;SDS011;3050;42.660;23.276;2023-06-14T12:47:22;3.45;;;2.53;;
6043;SDS011;3050;42.660;23.276;2023-06-14T12:50:49;2.88;;;2.67;;
6043;SDS011;3050;42.660;23.276;2023-06-14T12:54:20;3.38;;;3.17;;
6043;SDS011;3050;42.660;23.276;2023-06-14T12:57:46;3.63;;;2.75;;
6043;SDS011;3050;42.660;23.276;2023-06-14T13:01:12;3.67;;;3.38;;
6043;SDS011;3050;42.660;23.276;2023-06-14T13:04:38;2.70;;;2.53;;
6043;SDS011;3050;42.660;23.276;2023-06-14T13:08:06;4.43;;;2.50;;
6043;SDS011;3050;42.660;23.276;2023-06-14T13:11:34;3.42;;;2.90;;
6043;SDS011;3050;42.660;23.276;2023-06-14T13:15:00;3.20;;;2.90;;
6043;SDS011;3050;42.660;23.276;2023-06-14T13:18:26;2.40;;;2.30;;
6043;SDS011;3050;42.660;23.276;2023-06-14T13:21:52;3.85;;;2.40;;
6043;SDS011;3050;42.660;23.276;2023-06-14T13:25:19;2.30;;;2.20;;
6043;SDS011;3050;42.660;23.276;2023-06-14T13:28:47;4.30;;;2.38;;
6043;SDS011;3050;42.660;23.276;2023-06-14T13:32:12;2.40;;;2.20;;
6043;SDS011;3050;42.660;23.276;2023-06-14T13:35:39;2.00;;;1.90;;
6043;SDS011;3050;42.660;23.276;2023-06-14T13:39:05;2.33;;;2.22;;
6043;SDS011;3050;42.660;23.276;2023-06-14T13:42:31;3.13;;;1.77;;
6043;SDS011;3050;42.660;23.276;2023-06-14T13:45:58;2.72;;;2.40;;
6043;SDS011;3050;42.660;23.276;2023-06-14T13:49:24;2.10;;;1.98;;
6043;SDS011;3050;42.660;23.276;2023-06-14T13:52:38;2.28;;;2.10;;
6043;SDS011;3050;42.660;23.276;2023-06-14T13:56:04;2.30;;;2.10;;
6043;SDS011;3050;42.660;23.276;2023-06-14T13:59:29;2.15;;;2.05;;
6043;SDS011;3050;42.660;23.276;2023-06-14T14:02:57;3.70;;;2.80;;
6043;SDS011;3050;42.660;23.276;2023-06-14T14:06:27;3.05;;;2.60;;
6043;SDS011;3050;42.660;23.276;2023-06-14T14:09:53;3.55;;;2.50;;
6043;SDS011;3050;42.660;23.276;2023-06-14T14:13:19;2.63;;;2.42;;
6043;SDS011;3050;42.660;23.276;2023-06-14T14:16:45;2.70;;;1.88;;
6043;SDS011;3050;42.660;23.276;2023-06-14T14:20:14;2.97;;;2.78;;
6043;SDS011;3050;42.660;23.276;2023-06-14T14:23:40;4.78;;;2.95;;
6043;SDS011;3050;42.660;23.276;2023-06-14T14:27:06;2.40;;;2.30;;
6043;SDS011;3050;42.660;23.276;2023-06-14T14:30:32;2.53;;;2.42;;
6043;SDS011;3050;42.660;23.276;2023-06-14T14:34:00;1.85;;;1.75;;
6043;SDS011;3050;42.660;23.276;2023-06-14T14:37:27;2.35;;;2.25;;
6043;SDS011;3050;42.660;23.276;2023-06-14T14:40:56;3.40;;;2.00;;
6043;SDS011;3050;42.660;23.276;2023-06-14T14:44:22;1.65;;;1.55;;
6043;SDS011;3050;42.660;23.276;2023-06-14T14:47:47;1.70;;;1.50;;
6043;SDS011;3050;42.660;23.276;2023-06-14T14:51:12;2.13;;;2.00;;
6043;SDS011;3050;42.660;23.276;2023-06-14T14:54:39;2.35;;;2.25;;
6043;SDS011;3050;42.660;23.276;2023-06-14T14:58:05;2.97;;;2.78;;
6043;SDS011;3050;42.660;23.276;2023-06-14T15:01:31;2.47;;;2.28;;
6043;SDS011;3050;42.660;23.276;2023-06-14T15:04:57;2.03;;;1.92;;
6043;SDS011;3050;42.660;23.276;2023-06-14T15:08:24;2.65;;;2.45;;
6043;SDS011;3050;42.660;23.276;2023-06-14T15:11:52;3.00;;;2.80;;
6043;SDS011;3050;42.660;23.276;2023-06-14T15:15:18;3.58;;;3.28;;
6043;SDS011;3050;42.660;23.276;2023-06-14T15:18:49;3.55;;;2.75;;
6043;SDS011;3050;42.660;23.276;2023-06-14T15:22:14;3.45;;;3.15;;
6043;SDS011;3050;42.660;23.276;2023-06-14T15:25:45;4.65;;;3.03;;
6043;SDS011;3050;42.660;23.276;2023-06-14T15:29:13;4.15;;;3.08;;
6043;SDS011;3050;42.660;23.276;2023-06-14T15:32:40;7.50;;;3.30;;
6043;SDS011;3050;42.660;23.276;2023-06-14T15:36:05;3.50;;;2.58;;
6043;SDS011;3050;42.660;23.276;2023-06-14T15:39:31;4.25;;;2.65;;
6043;SDS011;3050;42.660;23.276;2023-06-14T15:42:57;3.92;;;3.25;;
6043;SDS011;3050;42.660;23.276;2023-06-14T15:46:24;2.47;;;2.30;;
6043;SDS011;3050;42.660;23.276;2023-06-14T15:49:49;4.30;;;2.90;;
6043;SDS011;3050;42.660;23.276;2023-06-14T15:53:15;4.30;;;2.95;;
6043;SDS011;3050;42.660;23.276;2023-06-14T15:56:40;4.18;;;3.15;;
6043;SDS011;3050;42.660;23.276;2023-06-14T16:00:07;3.53;;;3.17;;
6043;SDS011;3050;42.660;23.276;2023-06-14T16:03:34;5.20;;;4.30;;
6043;SDS011;3050;42.660;23.276;2023-06-14T16:07:00;3.83;;;3.53;;
6043;SDS011;3050;42.660;23.276;2023-06-14T16:10:25;4.55;;;3.50;;
6043;SDS011;3050;42.660;23.276;2023-06-14T16:13:51;3.40;;;3.10;;
6043;SDS011;3050;42.660;23.276;2023-06-14T16:17:17;3.25;;;3.05;;
6043;SDS011;3050;42.660;23.276;2023-06-14T16:20:45;3.25;;;3.00;;
6043;SDS011;3050;42.660;23.276;2023-06-14T16:24:13;3.22;;;2.50;;
6043;SDS011;3050;42.660;23.276;2023-06-14T16:27:39;2.78;;;2.53;;
6043;SDS011;3050;42.660;23.276;2023-06-14T16:31:07;2.88;;;2.67;;
6043;SDS011;3050;42.660;23.276;2023-06-14T16:34:34;2.83;;;2.17;;
6043;SDS011;3050;42.660;23.276;2023-06-14T16:38:04;2.35;;;2.20;;
6043;SDS011;3050;42.660;23.276;2023-06-14T16:41:30;2.55;;;2.25;;
6043;SDS011;3050;42.660;23.276;2023-06-14T16:44:57;2.53;;;2.33;;
6043;SDS011;3050;42.660;23.276;2023-06-14T16:48:24;3.25;;;2.65;;
6043;SDS011;3050;42.660;23.276;2023-06-14T16:51:51;2.40;;;2.20;;
6043;SDS011;3050;42.660;23.276;2023-06-14T16:55:22;4.53;;;2.72;;
6043;SDS011;3050;42.660;23.276;2023-06-14T16:58:51;2.90;;;2.25;;
6043;SDS011;3050;42.660;23.276;2023-06-14T17:02:17;2.13;;;2.03;;
6043;SDS011;3050;42.660;23.276;2023-06-14T17:05:53;2.42;;;2.20;;
6043;SDS011;3050;42.660;23.276;2023-06-14T17:09:27;2.92;;;2.67;;
6043;SDS011;3050;42.660;23.276;2023-06-14T17:13:05;2.28;;;2.00;;
6043;SDS011;3050;42.660;23.276;2023-06-14T17:16:33;1.90;;;1.70;;
6043;SDS011;3050;42.660;23.276;2023-06-14T17:20:06;3.03;;;2.40;;
6043;SDS011;3050;42.660;23.276;2023-06-14T17:23:33;2.72;;;2.53;;
6043;SDS011;3050;42.660;23.276;2023-06-14T17:27:02;3.20;;;2.58;;
6043;SDS011;3050;42.660;23.276;2023-06-14T17:30:28;2.05;;;1.95;;
6043;SDS011;3050;42.660;23.276;2023-06-14T17:33:57;4.82;;;2.35;;
6043;SDS011;3050;42.660;23.276;2023-06-14T17:37:23;2.30;;;1.92;;
6043;SDS011;3050;42.660;23.276;2023-06-14T17:40:50;2.78;;;2.50;;
6043;SDS011;3050;42.660;23.276;2023-06-14T17:44:26;2.35;;;2.25;;
6043;SDS011;3050;42.660;23.276;2023-06-14T17:47:52;2.25;;;2.10;;
6043;SDS011;3050;42.660;23.276;2023-06-14T17:51:21;1.88;;;1.77;;
6043;SDS011;3050;42.660;23.276;2023-06-14T17:54:50;2.70;;;1.52;;
6043;SDS011;3050;42.660;23.276;2023-06-14T17:58:16;5.35;;;1.95;;
6043;SDS011;3050;42.660;23.276;2023-06-14T18:01:44;2.17;;;2.08;;
6043;SDS011;3050;42.660;23.276;2023-06-14T18:05:10;2.95;;;2.55;;
6043;SDS011;3050;42.660;23.276;2023-06-14T18:08:37;2.50;;;2.40;;
6043;SDS011;3050;42.660;23.276;2023-06-14T18:12:03;2.25;;;2.10;;
6043;SDS011;3050;42.660;23.276;2023-06-14T18:15:29;6.25;;;2.10;;
6043;SDS011;3050;42.660;23.276;2023-06-14T18:18:57;2.05;;;1.95;;
6043;SDS011;3050;42.660;23.276;2023-06-14T18:22:28;2.15;;;2.05;;
6043;SDS011;3050;42.660;23.276;2023-06-14T18:25:54;4.22;;;2.03;;
6043;SDS011;3050;42.660;23.276;2023-06-14T18:29:20;4.88;;;2.03;;
6043;SDS011;3050;42.660;23.276;2023-06-14T18:32:46;1.98;;;1.90;;
6043;SDS011;3050;42.660;23.276;2023-06-14T18:36:13;2.47;;;2.28;;
6043;SDS011;3050;42.660;23.276;2023-06-14T18:39:39;2.92;;;2.42;;
6043;SDS011;3050;42.660;23.276;2023-06-14T18:43:05;1.77;;;1.67;;
6043;SDS011;3050;42.660;23.276;2023-06-14T18:46:31;1.95;;;1.85;;
6043;SDS011;3050;42.660;23.276;2023-06-14T18:49:57;2.00;;;1.90;;
6043;SDS011;3050;42.660;23.276;2023-06-14T18:53:25;2.38;;;2.17;;
6043;SDS011;3050;42.660;23.276;2023-06-14T18:56:51;4.90;;;3.38;;
6043;SDS011;3050;42.660;23.276;2023-06-14T19:00:17;20.45;;;6.50;;
6043;SDS011;3050;42.660;23.276;2023-06-14T19:03:43;19.98;;;7.97;;
6043;SDS011;3050;42.660;23.276;2023-06-14T19:07:09;11.02;;;5.95;;
6043;SDS011;3050;42.660;23.276;2023-06-14T19:10:37;13.25;;;5.57;;
6043;SDS011;3050;42.660;23.276;2023-06-14T19:14:05;6.80;;;4.10;;
6043;SDS011;3050;42.660;23.276;2023-06-14T19:17:31;3.95;;;3.28;;
6043;SDS011;3050;42.660;23.276;2023-06-14T19:20:57;3.55;;;3.25;;
6043;SDS011;3050;42.660;23.276;2023-06-14T19:24:22;4.30;;;3.47;;
6043;SDS011;3050;42.660;23.276;2023-06-14T19:27:50;3.42;;;3.13;;
6043;SDS011;3050;42.660;23.276;2023-06-14T19:31:16;4.43;;;3.70;;
6043;SDS011;3050;42.660;23.276;2023-06-14T19:34:41;3.40;;;3.10;;
6043;SDS011;3050;42.660;23.276;2023-06-14T19:38:08;3.70;;;3.13;;
6043;SDS011;3050;42.660;23.276;2023-06-14T19:41:34;5.40;;;2.92;;
6043;SDS011;3050;42.660;23.276;2023-06-14T19:45:04;3.53;;;3.22;;
6043;SDS011;3050;42.660;23.276;2023-06-14T19:48:36;2.83;;;2.63;;
6043;SDS011;3050;42.660;23.276;2023-06-14T19:52:01;3.42;;;3.13;;
6043;SDS011;3050;42.660;23.276;2023-06-14T19:55:27;3.45;;;2.97;;
6043;SDS011;3050;42.660;23.276;2023-06-14T19:58:53;3.03;;;2.83;;
6043;SDS011;3050;42.660;23.276;2023-06-14T20:02:21;4.43;;;3.35;;
6043;SDS011;3050;42.660;23.276;2023-06-14T20:05:49;2.47;;;2.28;;
6043;SDS011;3050;42.660;23.276;2023-06-14T20:09:20;2.42;;;2.22;;
6043;SDS011;3050;42.660;23.276;2023-06-14T20:12:47;1.60;;;1.50;;
6043;SDS011;3050;42.660;23.276;2023-06-14T20:16:12;1.85;;;1.75;;
6043;SDS011;3050;42.660;23.276;2023-06-14T20:19:40;1.00;;;1.00;;
6043;SDS011;3050;42.660;23.276;2023-06-14T20:23:06;0.98;;;0.98;;
6043;SDS011;3050;42.660;23.276;2023-06-14T20:26:32;1.73;;;1.45;;
6043;SDS011;3050;42.660;23.276;2023-06-14T20:29:58;2.50;;;1.33;;
6043;SDS011;3050;42.660;23.276;2023-06-14T20:33:26;1.45;;;1.23;;
6043;SDS011;3050;42.660;23.276;2023-06-14T20:36:59;1.08;;;1.08;;
6043;SDS011;3050;42.660;23.276;2023-06-14T20:40:25;3.90;;;1.30;;
6043;SDS011;3050;42.660;23.276;2023-06-14T20:43:50;1.30;;;1.20;;
6043;SDS011;3050;42.660;23.276;2023-06-14T20:47:16;1.38;;;1.38;;
6043;SDS011;3050;42.660;23.276;2023-06-14T20:50:42;1.60;;;1.50;;
6043;SDS011;3050;42.660;23.276;2023-06-14T20:54:10;1.25;;;1.25;;
6043;SDS011;3050;42.660;23.276;2023-06-14T20:57:35;0.88;;;0.88;;
6043;SDS011;3050;42.660;23.276;2023-06-14T21:01:01;2.35;;;1.20;;
6043;SDS011;3050;42.660;23.276;2023-06-14T21:04:27;1.92;;;1.50;;